sensor_id;sensor_type;location;lat;lon;timestamp;temperature;humidity
49052;DHT22;34866;48.670;18.260;2023-04-25T00:01:34;256.10;2252.80
49052;DHT22;34866;48.670;18.260;2023-04-25T00:04:02;256.00;2252.80
49052;DHT22;34866;48.670;18.260;2023-04-25T00:06:29;256.00;2252.80
49052;DHT22;34866;48.670;18.260;2023-04-25T00:08:56;256.00;2252.80
49052;DHT22;34866;48.670;18.260;2023-04-25T00:11:22;256.00;2252.80
49052;DHT22;34866;48.670;18.260;2023-04-25T00:13:48;231.30;2252.80
49052;DHT22;34866;48.670;18.260;2023-04-25T00:16:16;231.30;2252.80
49052;DHT22;34866;48.670;18.260;2023-04-25T00:18:42;231.30;2252.80
49052;DHT22;34866;48.670;18.260;2023-04-25T00:21:17;231.30;2252.80
49052;DHT22;34866;48.670;18.260;2023-04-25T00:23:43;231.20;2252.80
49052;DHT22;34866;48.670;18.260;2023-04-25T00:26:11;231.20;2252.80
49052;DHT22;34866;48.670;18.260;2023-04-25T00:28:37;231.20;2252.80
49052;DHT22;34866;48.670;18.260;2023-04-25T00:31:03;231.20;2252.80
49052;DHT22;34866;48.670;18.260;2023-04-25T00:33:30;231.20;2252.80
49052;DHT22;34866;48.670;18.260;2023-04-25T00:35:56;231.30;2252.80
49052;DHT22;34866;48.670;18.260;2023-04-25T00:38:22;231.20;2252.80
49052;DHT22;34866;48.670;18.260;2023-04-25T00:40:47;231.20;2252.80
49052;DHT22;34866;48.670;18.260;2023-04-25T00:43:13;231.20;2252.80
49052;DHT22;34866;48.670;18.260;2023-04-25T00:45:40;231.20;2252.80
49052;DHT22;34866;48.670;18.260;2023-04-25T00:48:06;231.20;2252.80
49052;DHT22;34866;48.670;18.260;2023-04-25T00:50:35;231.20;2252.80
49052;DHT22;34866;48.670;18.260;2023-04-25T00:53:02;231.20;2252.80
49052;DHT22;34866;48.670;18.260;2023-04-25T00:55:29;231.20;2252.80
49052;DHT22;34866;48.670;18.260;2023-04-25T00:57:55;231.20;2252.80
49052;DHT22;34866;48.670;18.260;2023-04-25T01:00:20;231.10;2252.80
49052;DHT22;34866;48.670;18.260;2023-04-25T01:02:46;231.20;2252.80
49052;DHT22;34866;48.670;18.260;2023-04-25T01:05:12;231.10;2252.80
49052;DHT22;34866;48.670;18.260;2023-04-25T01:07:39;231.10;2252.80
49052;DHT22;34866;48.670;18.260;2023-04-25T01:10:05;231.00;2252.80
49052;DHT22;34866;48.670;18.260;2023-04-25T01:12:31;231.00;2252.80
49052;DHT22;34866;48.670;18.260;2023-04-25T01:14:57;231.00;2252.80
49052;DHT22;34866;48.670;18.260;2023-04-25T01:17:23;231.00;2252.80
49052;DHT22;34866;48.670;18.260;2023-04-25T01:19:49;231.00;2252.80
49052;DHT22;34866;48.670;18.260;2023-04-25T01:22:16;231.10;2252.80
49052;DHT22;34866;48.670;18.260;2023-04-25T01:24:42;231.00;2252.80
49052;DHT22;34866;48.670;18.260;2023-04-25T01:27:08;230.80;2252.80
49052;DHT22;34866;48.670;18.260;2023-04-25T01:29:35;231.00;2252.80
49052;DHT22;34866;48.670;18.260;2023-04-25T01:32:04;231.00;2252.80
49052;DHT22;34866;48.670;18.260;2023-04-25T01:34:30;231.00;2252.80
49052;DHT22;34866;48.670;18.260;2023-04-25T01:36:56;231.00;2252.80
49052;DHT22;34866;48.670;18.260;2023-04-25T01:39:24;230.90;2252.80
49052;DHT22;34866;48.670;18.260;2023-04-25T01:41:50;231.00;2252.80
49052;DHT22;34866;48.670;18.260;2023-04-25T01:44:16;231.00;2252.80
49052;DHT22;34866;48.670;18.260;2023-04-25T01:46:42;231.10;2252.80
49052;DHT22;34866;48.670;18.260;2023-04-25T01:49:08;231.00;2252.80
49052;DHT22;34866;48.670;18.260;2023-04-25T01:51:33;230.90;2252.80
49052;DHT22;34866;48.670;18.260;2023-04-25T01:54:00;230.90;2252.80
49052;DHT22;34866;48.670;18.260;2023-04-25T01:56:30;230.80;2252.80
49052;DHT22;34866;48.670;18.260;2023-04-25T01:58:57;230.90;2252.80
49052;DHT22;34866;48.670;18.260;2023-04-25T02:01:22;230.80;2252.80
49052;DHT22;34866;48.670;18.260;2023-04-25T02:03:48;230.80;2252.80
49052;DHT22;34866;48.670;18.260;2023-04-25T02:06:14;230.80;2252.80
49052;DHT22;34866;48.670;18.260;2023-04-25T02:08:39;230.70;2252.80
49052;DHT22;34866;48.670;18.260;2023-04-25T02:11:07;230.70;2252.80
49052;DHT22;34866;48.670;18.260;2023-04-25T02:13:32;230.70;2252.80
49052;DHT22;34866;48.670;18.260;2023-04-25T02:15:58;230.70;2252.80
49052;DHT22;34866;48.670;18.260;2023-04-25T02:18:24;230.70;2252.80
49052;DHT22;34866;48.670;18.260;2023-04-25T02:20:51;230.60;2252.80
49052;DHT22;34866;48.670;18.260;2023-04-25T02:23:17;230.60;2252.80
49052;DHT22;34866;48.670;18.260;2023-04-25T02:25:44;230.70;2252.80
49052;DHT22;34866;48.670;18.260;2023-04-25T02:28:10;230.60;2252.80
49052;DHT22;34866;48.670;18.260;2023-04-25T02:30:36;230.60;2252.80
49052;DHT22;34866;48.670;18.260;2023-04-25T02:33:02;230.50;2252.80
49052;DHT22;34866;48.670;18.260;2023-04-25T02:35:29;230.60;2252.80
49052;DHT22;34866;48.670;18.260;2023-04-25T02:37:54;230.60;2252.80
49052;DHT22;34866;48.670;18.260;2023-04-25T02:40:20;230.50;2252.80
49052;DHT22;34866;48.670;18.260;2023-04-25T02:42:46;230.50;2252.80
49052;DHT22;34866;48.670;18.260;2023-04-25T02:45:13;230.50;2252.80
49052;DHT22;34866;48.670;18.260;2023-04-25T02:47:39;230.60;2252.80
49052;DHT22;34866;48.670;18.260;2023-04-25T02:50:05;230.50;2252.80
49052;DHT22;34866;48.670;18.260;2023-04-25T02:52:31;230.60;2252.80
49052;DHT22;34866;48.670;18.260;2023-04-25T02:54:56;230.50;2252.80
49052;DHT22;34866;48.670;18.260;2023-04-25T02:57:22;230.50;2252.80
49052;DHT22;34866;48.670;18.260;2023-04-25T02:59:49;230.50;2252.80
49052;DHT22;34866;48.670;18.260;2023-04-25T03:02:16;230.50;2252.80
49052;DHT22;34866;48.670;18.260;2023-04-25T03:04:42;230.50;2252.80
49052;DHT22;34866;48.670;18.260;2023-04-25T03:07:07;230.40;2252.80
49052;DHT22;34866;48.670;18.260;2023-04-25T03:09:33;230.50;2252.80
49052;DHT22;34866;48.670;18.260;2023-04-25T03:11:59;230.40;2252.80
49052;DHT22;34866;48.670;18.260;2023-04-25T03:14:24;230.50;2252.80
49052;DHT22;34866;48.670;18.260;2023-04-25T03:16:50;230.50;2252.80
49052;DHT22;34866;48.670;18.260;2023-04-25T03:19:16;230.40;2252.80
49052;DHT22;34866;48.670;18.260;2023-04-25T03:21:42;230.40;2252.80
49052;DHT22;34866;48.670;18.260;2023-04-25T03:24:09;230.50;2252.80
49052;DHT22;34866;48.670;18.260;2023-04-25T03:26:37;205.70;2252.80
49052;DHT22;34866;48.670;18.260;2023-04-25T03:29:03;205.70;2252.80
49052;DHT22;34866;48.670;18.260;2023-04-25T03:31:29;230.40;2252.80
49052;DHT22;34866;48.670;18.260;2023-04-25T03:33:55;205.70;2252.80
49052;DHT22;34866;48.670;18.260;2023-04-25T03:36:24;205.70;2252.80
49052;DHT22;34866;48.670;18.260;2023-04-25T03:38:50;205.70;2252.80
49052;DHT22;34866;48.670;18.260;2023-04-25T03:41:19;205.70;2252.80
49052;DHT22;34866;48.670;18.260;2023-04-25T03:43:44;205.60;2252.80
49052;DHT22;34866;48.670;18.260;2023-04-25T03:46:10;205.60;2252.80
49052;DHT22;34866;48.670;18.260;2023-04-25T03:48:37;205.70;2252.80
49052;DHT22;34866;48.670;18.260;2023-04-25T03:51:03;205.70;2252.80
49052;DHT22;34866;48.670;18.260;2023-04-25T03:53:29;205.60;2252.80
49052;DHT22;34866;48.670;18.260;2023-04-25T03:55:54;205.60;2252.80
49052;DHT22;34866;48.670;18.260;2023-04-25T03:58:20;205.60;2252.80
49052;DHT22;34866;48.670;18.260;2023-04-25T04:00:46;205.60;2252.80
49052;DHT22;34866;48.670;18.260;2023-04-25T04:03:12;205.60;2252.80
49052;DHT22;34866;48.670;18.260;2023-04-25T04:05:37;205.70;2252.80
49052;DHT22;34866;48.670;18.260;2023-04-25T04:08:06;205.70;2252.80
49052;DHT22;34866;48.670;18.260;2023-04-25T04:10:31;205.60;2252.80
49052;DHT22;34866;48.670;18.260;2023-04-25T04:12:57;205.60;2252.80
49052;DHT22;34866;48.670;18.260;2023-04-25T04:15:23;205.60;2252.80
49052;DHT22;34866;48.670;18.260;2023-04-25T04:17:49;205.60;2252.80
49052;DHT22;34866;48.670;18.260;2023-04-25T04:20:14;205.60;2252.80
49052;DHT22;34866;48.670;18.260;2023-04-25T04:22:40;205.60;2252.80
49052;DHT22;34866;48.670;18.260;2023-04-25T04:25:09;205.60;2252.80
49052;DHT22;34866;48.670;18.260;2023-04-25T04:27:37;205.60;2252.80
49052;DHT22;34866;48.670;18.260;2023-04-25T04:30:03;205.60;2252.80
49052;DHT22;34866;48.670;18.260;2023-04-25T04:32:29;205.60;2252.80
49052;DHT22;34866;48.670;18.260;2023-04-25T04:34:56;205.60;2252.80
49052;DHT22;34866;48.670;18.260;2023-04-25T04:37:21;205.70;2252.80
49052;DHT22;34866;48.670;18.260;2023-04-25T04:39:48;205.70;2252.80
49052;DHT22;34866;48.670;18.260;2023-04-25T04:42:20;205.60;2252.80
49052;DHT22;34866;48.670;18.260;2023-04-25T04:44:46;205.60;2252.80
49052;DHT22;34866;48.670;18.260;2023-04-25T04:47:12;205.60;2252.80
49052;DHT22;34866;48.670;18.260;2023-04-25T04:49:39;205.60;2252.80
49052;DHT22;34866;48.670;18.260;2023-04-25T04:52:05;205.60;2252.80
49052;DHT22;34866;48.670;18.260;2023-04-25T04:54:31;205.70;2252.80
49052;DHT22;34866;48.670;18.260;2023-04-25T04:56:57;205.70;2252.80
49052;DHT22;34866;48.670;18.260;2023-04-25T04:59:22;205.70;2252.80
49052;DHT22;34866;48.670;18.260;2023-04-25T05:01:48;205.70;2252.80
49052;DHT22;34866;48.670;18.260;2023-04-25T05:04:14;205.70;2252.80
49052;DHT22;34866;48.670;18.260;2023-04-25T05:06:44;205.70;2252.80
49052;DHT22;34866;48.670;18.260;2023-04-25T05:09:10;205.70;2252.80
49052;DHT22;34866;48.670;18.260;2023-04-25T05:11:36;230.40;2252.80
49052;DHT22;34866;48.670;18.260;2023-04-25T05:14:01;205.70;2252.80
49052;DHT22;34866;48.670;18.260;2023-04-25T05:16:27;230.40;2252.80
49052;DHT22;34866;48.670;18.260;2023-04-25T05:18:53;230.40;2252.80
49052;DHT22;34866;48.670;18.260;2023-04-25T05:21:19;230.40;2252.80
49052;DHT22;34866;48.670;18.260;2023-04-25T05:23:45;230.40;2252.80
49052;DHT22;34866;48.670;18.260;2023-04-25T05:26:10;230.40;2252.80
49052;DHT22;34866;48.670;18.260;2023-04-25T05:28:40;230.40;2252.80
49052;DHT22;34866;48.670;18.260;2023-04-25T05:31:06;230.40;2252.80
49052;DHT22;34866;48.670;18.260;2023-04-25T05:33:32;230.40;2252.80
49052;DHT22;34866;48.670;18.260;2023-04-25T05:35:58;230.40;2252.80
49052;DHT22;34866;48.670;18.260;2023-04-25T05:38:23;230.40;2252.80
49052;DHT22;34866;48.670;18.260;2023-04-25T05:40:49;230.40;2252.80
49052;DHT22;34866;48.670;18.260;2023-04-25T05:43:15;230.40;2252.80
49052;DHT22;34866;48.670;18.260;2023-04-25T05:45:42;230.40;2252.80
49052;DHT22;34866;48.670;18.260;2023-04-25T05:48:08;230.40;2252.80
49052;DHT22;34866;48.670;18.260;2023-04-25T05:50:33;230.40;2252.80
49052;DHT22;34866;48.670;18.260;2023-04-25T05:53:00;230.50;2252.80
49052;DHT22;34866;48.670;18.260;2023-04-25T05:55:26;230.50;2252.80
49052;DHT22;34866;48.670;18.260;2023-04-25T05:57:51;230.40;2252.80
49052;DHT22;34866;48.670;18.260;2023-04-25T06:00:17;230.50;2252.80
49052;DHT22;34866;48.670;18.260;2023-04-25T06:02:44;230.50;2252.80
49052;DHT22;34866;48.670;18.260;2023-04-25T06:05:10;230.50;2252.80
49052;DHT22;34866;48.670;18.260;2023-04-25T06:07:35;230.50;2252.80
49052;DHT22;34866;48.670;18.260;2023-04-25T06:10:01;230.50;2252.80
49052;DHT22;34866;48.670;18.260;2023-04-25T06:12:27;230.50;2252.80
49052;DHT22;34866;48.670;18.260;2023-04-25T06:14:52;230.50;2252.80
49052;DHT22;34866;48.670;18.260;2023-04-25T06:17:19;230.60;2252.80
49052;DHT22;34866;48.670;18.260;2023-04-25T06:19:44;230.60;2252.80
49052;DHT22;34866;48.670;18.260;2023-04-25T06:22:10;230.60;2252.80
49052;DHT22;34866;48.670;18.260;2023-04-25T06:24:36;230.70;2252.80
49052;DHT22;34866;48.670;18.260;2023-04-25T06:27:01;230.70;2252.80
49052;DHT22;34866;48.670;18.260;2023-04-25T06:29:28;230.70;2252.80
49052;DHT22;34866;48.670;18.260;2023-04-25T06:31:53;230.70;2252.80
49052;DHT22;34866;48.670;18.260;2023-04-25T06:34:19;230.70;2252.80
49052;DHT22;34866;48.670;18.260;2023-04-25T06:36:45;230.70;2252.80
49052;DHT22;34866;48.670;18.260;2023-04-25T06:39:11;230.80;2252.80
49052;DHT22;34866;48.670;18.260;2023-04-25T06:41:37;230.80;2252.80
49052;DHT22;34866;48.670;18.260;2023-04-25T06:44:03;231.00;2252.80
49052;DHT22;34866;48.670;18.260;2023-04-25T06:46:28;231.20;2252.80
49052;DHT22;34866;48.670;18.260;2023-04-25T06:48:54;231.30;2252.80
49052;DHT22;34866;48.670;18.260;2023-04-25T06:51:20;231.20;2252.80
49052;DHT22;34866;48.670;18.260;2023-04-25T06:53:46;231.30;2252.80
49052;DHT22;34866;48.670;18.260;2023-04-25T06:56:12;231.30;2252.80
49052;DHT22;34866;48.670;18.260;2023-04-25T06:58:37;256.00;2252.80
49052;DHT22;34866;48.670;18.260;2023-04-25T07:01:03;256.00;2252.80
49052;DHT22;34866;48.670;18.260;2023-04-25T07:03:29;256.00;2201.60
49052;DHT22;34866;48.670;18.260;2023-04-25T07:05:55;256.00;2252.80
49052;DHT22;34866;48.670;18.260;2023-04-25T07:08:21;231.30;1971.20
49052;DHT22;34866;48.670;18.260;2023-04-25T07:10:47;231.10;1996.80
49052;DHT22;34866;48.670;18.260;2023-04-25T07:13:12;231.20;2073.60
49052;DHT22;34866;48.670;18.260;2023-04-25T07:15:38;231.10;2252.80
49052;DHT22;34866;48.670;18.260;2023-04-25T07:18:04;231.20;2252.80
49052;DHT22;34866;48.670;18.260;2023-04-25T07:20:29;231.20;2252.80
49052;DHT22;34866;48.670;18.260;2023-04-25T07:22:59;231.10;2252.80
49052;DHT22;34866;48.670;18.260;2023-04-25T07:25:25;231.10;1996.80
49052;DHT22;34866;48.670;18.260;2023-04-25T07:27:50;231.10;2099.20
49052;DHT22;34866;48.670;18.260;2023-04-25T07:30:16;231.30;2252.80
49052;DHT22;34866;48.670;18.260;2023-04-25T07:32:42;231.20;2252.80
49052;DHT22;34866;48.670;18.260;2023-04-25T07:35:08;231.00;2252.80
49052;DHT22;34866;48.670;18.260;2023-04-25T07:37:35;231.00;2252.80
49052;DHT22;34866;48.670;18.260;2023-04-25T07:40:04;231.00;1945.60
49052;DHT22;34866;48.670;18.260;2023-04-25T07:42:30;231.00;2252.80
49052;DHT22;34866;48.670;18.260;2023-04-25T07:45:00;231.00;2252.80
49052;DHT22;34866;48.670;18.260;2023-04-25T07:47:26;231.00;2252.80
49052;DHT22;34866;48.670;18.260;2023-04-25T07:49:53;231.00;2252.80
49052;DHT22;34866;48.670;18.260;2023-04-25T07:52:18;231.20;2252.80
49052;DHT22;34866;48.670;18.260;2023-04-25T07:54:45;231.20;2252.80
49052;DHT22;34866;48.670;18.260;2023-04-25T07:57:11;231.30;2252.80
49052;DHT22;34866;48.670;18.260;2023-04-25T07:59:39;231.30;2252.80
49052;DHT22;34866;48.670;18.260;2023-04-25T08:02:05;256.00;2048.00
49052;DHT22;34866;48.670;18.260;2023-04-25T08:04:31;256.10;2252.80
49052;DHT22;34866;48.670;18.260;2023-04-25T08:06:58;256.30;2252.80
49052;DHT22;34866;48.670;18.260;2023-04-25T08:09:24;256.30;2252.80
49052;DHT22;34866;48.670;18.260;2023-04-25T08:11:51;256.20;2252.80
49052;DHT22;34866;48.670;18.260;2023-04-25T08:14:17;256.40;2252.80
49052;DHT22;34866;48.670;18.260;2023-04-25T08:16:42;256.20;2252.80
49052;DHT22;34866;48.670;18.260;2023-04-25T08:19:09;256.30;2252.80
49052;DHT22;34866;48.670;18.260;2023-04-25T08:21:36;256.20;2252.80
49052;DHT22;34866;48.670;18.260;2023-04-25T08:24:02;256.20;2252.80
49052;DHT22;34866;48.670;18.260;2023-04-25T08:26:28;256.20;2252.80
49052;DHT22;34866;48.670;18.260;2023-04-25T08:28:54;256.10;2252.80
49052;DHT22;34866;48.670;18.260;2023-04-25T08:31:20;256.20;2252.80
49052;DHT22;34866;48.670;18.260;2023-04-25T08:33:46;256.70;2252.80
49052;DHT22;34866;48.670;18.260;2023-04-25T08:36:12;256.20;2201.60
49052;DHT22;34866;48.670;18.260;2023-04-25T08:38:40;256.10;1664.00
49052;DHT22;34866;48.670;18.260;2023-04-25T08:41:06;256.30;2252.80
49052;DHT22;34866;48.670;18.260;2023-04-25T08:43:32;256.50;2099.20
49052;DHT22;34866;48.670;18.260;2023-04-25T08:46:00;256.50;2124.80
49052;DHT22;34866;48.670;18.260;2023-04-25T08:48:32;256.50;2176.00
49052;DHT22;34866;48.670;18.260;2023-04-25T08:50:58;256.60;1408.00
49052;DHT22;34866;48.670;18.260;2023-04-25T08:53:32;256.70;1792.00
49052;DHT22;34866;48.670;18.260;2023-04-25T08:56:00;256.90;1766.40
49052;DHT22;34866;48.670;18.260;2023-04-25T08:58:29;256.80;1331.20
49052;DHT22;34866;48.670;18.260;2023-04-25T09:00:56;256.90;1049.60
49052;DHT22;34866;48.670;18.260;2023-04-25T09:03:21;256.90;537.60
49052;DHT22;34866;48.670;18.260;2023-04-25T09:05:47;256.80;128.00
49052;DHT22;34866;48.670;18.260;2023-04-25T09:08:13;281.70;691.20
49052;DHT22;34866;48.670;18.260;2023-04-25T09:10:39;256.90;128.00
49052;DHT22;34866;48.670;18.260;2023-04-25T09:13:14;281.80;691.20
49052;DHT22;34866;48.670;18.260;2023-04-25T09:16:06;281.80;460.80
49052;DHT22;34866;48.670;18.260;2023-04-25T09:18:34;281.70;6528.00
49052;DHT22;34866;48.670;18.260;2023-04-25T09:21:08;281.90;6528.00
49052;DHT22;34866;48.670;18.260;2023-04-25T09:23:49;281.80;6528.00
49052;DHT22;34866;48.670;18.260;2023-04-25T09:26:19;281.90;128.00
49052;DHT22;34866;48.670;18.260;2023-04-25T09:28:46;281.60;6528.00
49052;DHT22;34866;48.670;18.260;2023-04-25T09:31:21;281.80;6528.00
49052;DHT22;34866;48.670;18.260;2023-04-25T09:33:47;281.80;128.00
49052;DHT22;34866;48.670;18.260;2023-04-25T09:36:13;281.90;6528.00
49052;DHT22;34866;48.670;18.260;2023-04-25T09:38:43;281.90;6528.00
49052;DHT22;34866;48.670;18.260;2023-04-25T09:41:10;282.00;6528.00
49052;DHT22;34866;48.670;18.260;2023-04-25T09:43:37;282.00;6528.00
49052;DHT22;34866;48.670;18.260;2023-04-25T09:46:04;282.10;6528.00
49052;DHT22;34866;48.670;18.260;2023-04-25T09:48:38;282.10;6528.00
49052;DHT22;34866;48.670;18.260;2023-04-25T09:53:31;282.20;6528.00
49052;DHT22;34866;48.670;18.260;2023-04-25T09:55:59;282.50;6528.00
49052;DHT22;34866;48.670;18.260;2023-04-25T09:58:25;282.20;6528.00
49052;DHT22;34866;48.670;18.260;2023-04-25T10:00:55;282.30;6528.00
49052;DHT22;34866;48.670;18.260;2023-04-25T10:03:26;282.30;6528.00
49052;DHT22;34866;48.670;18.260;2023-04-25T10:05:52;307.30;128.00
49052;DHT22;34866;48.670;18.260;2023-04-25T10:08:20;282.50;6528.00
49052;DHT22;34866;48.670;18.260;2023-04-25T10:10:46;307.40;128.00
49052;DHT22;34866;48.670;18.260;2023-04-25T10:13:14;282.30;6528.00
49052;DHT22;34866;48.670;18.260;2023-04-25T10:15:41;307.40;128.00
49052;DHT22;34866;48.670;18.260;2023-04-25T10:18:07;307.30;128.00
49052;DHT22;34866;48.670;18.260;2023-04-25T10:20:33;307.20;128.00
49052;DHT22;34866;48.670;18.260;2023-04-25T10:23:13;282.40;6528.00
49052;DHT22;34866;48.670;18.260;2023-04-25T10:25:40;307.20;128.00
49052;DHT22;34866;48.670;18.260;2023-04-25T10:28:06;307.40;128.00
49052;DHT22;34866;48.670;18.260;2023-04-25T10:30:31;307.40;128.00
49052;DHT22;34866;48.670;18.260;2023-04-25T10:32:58;307.60;128.00
49052;DHT22;34866;48.670;18.260;2023-04-25T10:35:27;307.80;128.00
49052;DHT22;34866;48.670;18.260;2023-04-25T10:38:10;307.90;128.00
49052;DHT22;34866;48.670;18.260;2023-04-25T10:40:36;308.00;128.00
49052;DHT22;34866;48.670;18.260;2023-04-25T10:43:34;307.90;128.00
49052;DHT22;34866;48.670;18.260;2023-04-25T10:46:00;332.80;128.00
49052;DHT22;34866;48.670;18.260;2023-04-25T10:48:30;333.00;128.00
49052;DHT22;34866;48.670;18.260;2023-04-25T10:51:09;332.90;128.00
49052;DHT22;34866;48.670;18.260;2023-04-25T10:53:38;332.90;128.00
49052;DHT22;34866;48.670;18.260;2023-04-25T10:56:11;333.00;128.00
49052;DHT22;34866;48.670;18.260;2023-04-25T10:58:42;333.40;128.00
49052;DHT22;34866;48.670;18.260;2023-04-25T11:01:10;333.60;128.00
49052;DHT22;34866;48.670;18.260;2023-04-25T11:03:43;333.40;563.20
49052;DHT22;34866;48.670;18.260;2023-04-25T11:06:31;332.80;179.20
49052;DHT22;34866;48.670;18.260;2023-04-25T11:09:00;308.10;128.00
49052;DHT22;34866;48.670;18.260;2023-04-25T11:11:29;333.10;588.80
49052;DHT22;34866;48.670;18.260;2023-04-25T11:13:55;333.20;204.80
49052;DHT22;34866;48.670;18.260;2023-04-25T11:16:24;333.60;435.20
49052;DHT22;34866;48.670;18.260;2023-04-25T11:19:13;333.50;128.00
49052;DHT22;34866;48.670;18.260;2023-04-25T11:21:41;333.60;128.00
49052;DHT22;34866;48.670;18.260;2023-04-25T11:24:16;333.40;128.00
49052;DHT22;34866;48.670;18.260;2023-04-25T11:26:55;333.70;128.00
49052;DHT22;34866;48.670;18.260;2023-04-25T11:29:23;358.80;128.00
49052;DHT22;34866;48.670;18.260;2023-04-25T11:31:55;358.80;128.00
49052;DHT22;34866;48.670;18.260;2023-04-25T11:34:25;358.70;128.00
49052;DHT22;34866;48.670;18.260;2023-04-25T11:36:55;358.60;128.00
49052;DHT22;34866;48.670;18.260;2023-04-25T11:39:45;358.70;128.00
49052;DHT22;34866;48.670;18.260;2023-04-25T11:42:13;333.60;128.00
49052;DHT22;34866;48.670;18.260;2023-04-25T11:44:39;333.50;128.00
49052;DHT22;34866;48.670;18.260;2023-04-25T11:47:43;358.40;128.00
49052;DHT22;34866;48.670;18.260;2023-04-25T11:50:10;358.70;128.00
49052;DHT22;34866;48.670;18.260;2023-04-25T11:52:40;358.70;128.00
49052;DHT22;34866;48.670;18.260;2023-04-25T11:55:18;358.70;128.00
49052;DHT22;34866;48.670;18.260;2023-04-25T11:57:48;358.70;128.00
49052;DHT22;34866;48.670;18.260;2023-04-25T12:00:19;358.60;128.00
49052;DHT22;34866;48.670;18.260;2023-04-25T12:03:05;358.60;128.00
49052;DHT22;34866;48.670;18.260;2023-04-25T12:05:35;359.30;128.00
49052;DHT22;34866;48.670;18.260;2023-04-25T12:08:13;384.00;128.00
49052;DHT22;34866;48.670;18.260;2023-04-25T12:10:40;384.20;128.00
49052;DHT22;34866;48.670;18.260;2023-04-25T12:15:56;384.10;128.00
49052;DHT22;34866;48.670;18.260;2023-04-25T12:18:24;359.30;128.00
49052;DHT22;34866;48.670;18.260;2023-04-25T12:21:04;359.20;128.00
49052;DHT22;34866;48.670;18.260;2023-04-25T12:23:30;359.00;128.00
49052;DHT22;34866;48.670;18.260;2023-04-25T12:25:56;359.20;128.00
49052;DHT22;34866;48.670;18.260;2023-04-25T12:28:23;358.90;128.00
49052;DHT22;34866;48.670;18.260;2023-04-25T12:30:56;358.70;128.00
49052;DHT22;34866;48.670;18.260;2023-04-25T12:33:25;358.50;128.00
49052;DHT22;34866;48.670;18.260;2023-04-25T12:35:52;358.80;128.00
49052;DHT22;34866;48.670;18.260;2023-04-25T12:38:24;384.20;128.00
49052;DHT22;34866;48.670;18.260;2023-04-25T12:40:50;384.10;128.00
49052;DHT22;34866;48.670;18.260;2023-04-25T12:43:19;384.40;128.00
49052;DHT22;34866;48.670;18.260;2023-04-25T12:45:48;384.40;128.00
49052;DHT22;34866;48.670;18.260;2023-04-25T12:48:15;384.30;128.00
49052;DHT22;34866;48.670;18.260;2023-04-25T12:50:44;384.40;128.00
49052;DHT22;34866;48.670;18.260;2023-04-25T12:53:10;384.90;128.00
49052;DHT22;34866;48.670;18.260;2023-04-25T12:55:38;384.40;128.00
49052;DHT22;34866;48.670;18.260;2023-04-25T12:58:04;384.30;128.00
49052;DHT22;34866;48.670;18.260;2023-04-25T13:00:30;384.20;128.00
49052;DHT22;34866;48.670;18.260;2023-04-25T13:02:56;384.50;128.00
49052;DHT22;34866;48.670;18.260;2023-04-25T13:05:21;384.40;128.00
49052;DHT22;34866;48.670;18.260;2023-04-25T13:07:47;384.30;128.00
49052;DHT22;34866;48.670;18.260;2023-04-25T13:10:13;384.60;128.00
49052;DHT22;34866;48.670;18.260;2023-04-25T13:12:39;384.60;128.00
49052;DHT22;34866;48.670;18.260;2023-04-25T13:15:05;384.70;128.00
49052;DHT22;34866;48.670;18.260;2023-04-25T13:17:32;384.70;128.00
49052;DHT22;34866;48.670;18.260;2023-04-25T13:19:58;384.40;128.00
49052;DHT22;34866;48.670;18.260;2023-04-25T13:22:39;384.30;128.00
49052;DHT22;34866;48.670;18.260;2023-04-25T13:25:07;359.20;128.00
49052;DHT22;34866;48.670;18.260;2023-04-25T13:27:39;359.10;128.00
49052;DHT22;34866;48.670;18.260;2023-04-25T13:30:07;358.90;128.00
49052;DHT22;34866;48.670;18.260;2023-04-25T13:32:37;358.80;128.00
49052;DHT22;34866;48.670;18.260;2023-04-25T13:35:04;358.90;128.00
49052;DHT22;34866;48.670;18.260;2023-04-25T13:37:30;358.60;128.00
49052;DHT22;34866;48.670;18.260;2023-04-25T13:40:01;358.70;128.00
49052;DHT22;34866;48.670;18.260;2023-04-25T13:42:36;358.60;128.00
49052;DHT22;34866;48.670;18.260;2023-04-25T13:45:02;358.60;128.00
49052;DHT22;34866;48.670;18.260;2023-04-25T13:47:29;358.70;128.00
49052;DHT22;34866;48.670;18.260;2023-04-25T13:49:56;358.70;128.00
49052;DHT22;34866;48.670;18.260;2023-04-25T13:52:23;358.70;128.00
49052;DHT22;34866;48.670;18.260;2023-04-25T13:54:52;358.60;128.00
49052;DHT22;34866;48.670;18.260;2023-04-25T13:57:18;333.70;128.00
49052;DHT22;34866;48.670;18.260;2023-04-25T13:59:44;333.60;128.00
49052;DHT22;34866;48.670;18.260;2023-04-25T14:02:13;333.60;128.00
49052;DHT22;34866;48.670;18.260;2023-04-25T14:04:39;333.50;128.00
49052;DHT22;34866;48.670;18.260;2023-04-25T14:07:08;333.40;128.00
49052;DHT22;34866;48.670;18.260;2023-04-25T14:09:48;333.50;128.00
49052;DHT22;34866;48.670;18.260;2023-04-25T14:12:16;333.60;128.00
49052;DHT22;34866;48.670;18.260;2023-04-25T14:14:42;333.50;128.00
49052;DHT22;34866;48.670;18.260;2023-04-25T14:17:08;333.20;128.00
49052;DHT22;34866;48.670;18.260;2023-04-25T14:19:34;332.90;128.00
49052;DHT22;34866;48.670;18.260;2023-04-25T14:22:01;333.50;128.00
49052;DHT22;34866;48.670;18.260;2023-04-25T14:24:27;333.40;128.00
49052;DHT22;34866;48.670;18.260;2023-04-25T14:26:53;333.10;128.00
49052;DHT22;34866;48.670;18.260;2023-04-25T14:29:19;333.20;128.00
49052;DHT22;34866;48.670;18.260;2023-04-25T14:31:44;333.10;128.00
49052;DHT22;34866;48.670;18.260;2023-04-25T14:34:11;333.20;128.00
49052;DHT22;34866;48.670;18.260;2023-04-25T14:36:37;333.40;128.00
49052;DHT22;34866;48.670;18.260;2023-04-25T14:39:04;333.60;128.00
49052;DHT22;34866;48.670;18.260;2023-04-25T14:41:32;333.50;128.00
49052;DHT22;34866;48.670;18.260;2023-04-25T14:43:58;333.50;128.00
49052;DHT22;34866;48.670;18.260;2023-04-25T14:46:23;333.50;128.00